createdAt,value
2023-02-27T00:00:42.793Z,2.08
2023-02-27T00:03:09.282Z,3.11
2023-02-27T00:05:35.931Z,2.95
2023-02-27T00:08:02.457Z,3.47
2023-02-27T00:10:28.921Z,3.23
2023-02-27T00:12:56.115Z,2.79
2023-02-27T00:15:23.330Z,2.92
2023-02-27T00:17:49.827Z,2.73
2023-02-27T00:20:18.339Z,2.58
2023-02-27T00:22:45.368Z,3.47
2023-02-27T00:25:12.661Z,3.44
2023-02-27T00:27:39.905Z,3.41
2023-02-27T00:30:09.932Z,3.11
2023-02-27T00:32:36.851Z,2.67
2023-02-27T00:35:04.620Z,3.18
2023-02-27T00:37:31.213Z,3.00
2023-02-27T00:40:01.438Z,3.22
2023-02-27T00:42:28.632Z,3.22
2023-02-27T00:44:55.085Z,2.55
2023-02-27T00:47:21.525Z,2.71
2023-02-27T00:49:47.968Z,3.05
2023-02-27T00:52:14.385Z,3.03
2023-02-27T00:54:40.814Z,3.19
2023-02-27T00:57:07.255Z,2.76
2023-02-27T00:59:33.712Z,2.92
2023-02-27T01:02:00.325Z,2.27
2023-02-27T01:04:28.861Z,2.95
2023-02-27T01:06:55.402Z,2.33
2023-02-27T01:09:22.037Z,2.37
2023-02-27T01:11:48.449Z,2.73
2023-02-27T01:14:15.053Z,2.59
2023-02-27T01:16:41.541Z,2.24
2023-02-27T01:19:08.292Z,3.07
2023-02-27T01:21:34.779Z,3.22
2023-02-27T01:24:01.244Z,2.48
2023-02-27T01:26:27.702Z,2.45
2023-02-27T01:28:54.135Z,2.49
2023-02-27T01:31:20.615Z,2.50
2023-02-27T01:33:48.941Z,2.36
2023-02-27T01:36:15.413Z,2.57
2023-02-27T01:38:41.880Z,2.15
2023-02-27T01:41:08.399Z,1.83
2023-02-27T01:43:34.970Z,2.18
2023-02-27T01:46:01.446Z,2.61
2023-02-27T01:48:33.865Z,1.84
2023-02-27T01:51:14.605Z,2.27
2023-02-27T01:53:41.865Z,2.33
2023-02-27T01:56:12.874Z,2.24
2023-02-27T01:58:39.618Z,1.87
2023-02-27T02:01:06.794Z,1.59
2023-02-27T02:03:46.606Z,2.10
2023-02-27T02:06:13.174Z,1.75
2023-02-27T02:08:42.535Z,1.66
2023-02-27T02:11:09.293Z,1.50
2023-02-27T02:13:37.096Z,1.36
2023-02-27T02:16:32.787Z,2.04
2023-02-27T02:19:05.156Z,2.08
2023-02-27T02:21:40.503Z,2.08
2023-02-27T02:24:27.291Z,1.48
2023-02-27T02:27:00.917Z,1.74
2023-02-27T02:30:02.758Z,1.27
2023-02-27T02:32:38.541Z,1.63
2023-02-27T02:35:23.781Z,1.64
2023-02-27T02:38:06.223Z,1.19
2023-02-27T02:40:37.469Z,1.50
2023-02-27T02:43:22.228Z,0.83
2023-02-27T02:45:53.324Z,1.44
2023-02-27T02:48:29.689Z,1.13
2023-02-27T02:50:59.902Z,1.39
2023-02-27T02:53:36.693Z,1.30
2023-02-27T02:56:25.388Z,1.08
2023-02-27T02:59:00.867Z,1.14
2023-02-27T03:01:33.611Z,0.57
2023-02-27T03:04:10.295Z,0.89
2023-02-27T03:06:41.570Z,1.08
2023-02-27T03:09:16.460Z,1.04
2023-02-27T03:11:45.980Z,0.84
2023-02-27T03:14:27.526Z,0.56
2023-02-27T03:16:56.005Z,1.01
2023-02-27T03:19:33.451Z,0.70
2023-02-27T03:22:05.268Z,0.86
2023-02-27T03:24:45.460Z,0.76
2023-02-27T03:27:13.054Z,0.32
2023-02-27T03:29:53.026Z,0.49
2023-02-27T03:32:48.226Z,0.08
2023-02-27T03:35:14.556Z,0.57
2023-02-27T03:37:59.718Z,0.71
2023-02-27T03:40:40.664Z,0.63
2023-02-27T03:43:25.690Z,-0.16
2023-02-27T03:45:55.109Z,0.63
2023-02-27T03:48:21.652Z,0.10
2023-02-27T03:50:48.262Z,0.28
2023-02-27T03:53:30.385Z,0.32
2023-02-27T03:55:57.892Z,0.10
2023-02-27T03:58:24.508Z,-0.15
2023-02-27T04:00:51.351Z,-0.28
2023-02-27T04:03:17.819Z,0.34
2023-02-27T04:05:44.294Z,0.08
2023-02-27T04:08:18.038Z,0.05
2023-02-27T04:11:01.063Z,0.06
2023-02-27T04:13:27.457Z,0.40
2023-02-27T04:16:25.045Z,0.32
2023-02-27T04:19:13.322Z,0.34
2023-02-27T04:21:57.310Z,0.02
2023-02-27T04:25:02.368Z,0.22
2023-02-27T04:27:36.091Z,0.12
2023-02-27T04:30:37.825Z,0.24
2023-02-27T04:33:30.390Z,0.33
2023-02-27T04:36:14.140Z,0.00
2023-02-27T04:38:52.064Z,0.02
2023-02-27T04:41:25.577Z,0.22
2023-02-27T04:43:52.666Z,-0.35
2023-02-27T04:46:24.060Z,-0.10
2023-02-27T04:49:12.374Z,-0.11
2023-02-27T04:51:47.437Z,-0.18
2023-02-27T04:54:16.726Z,-0.23
2023-02-27T04:56:52.615Z,-0.17
2023-02-27T04:59:27.804Z,0.08
2023-02-27T05:01:58.116Z,-0.27
2023-02-27T05:04:25.255Z,-0.03
2023-02-27T05:06:53.883Z,-0.07
2023-02-27T05:09:35.400Z,0.05
2023-02-27T05:12:05.832Z,-0.34
2023-02-27T05:14:41.291Z,-0.13
2023-02-27T05:17:09.842Z,-0.40
2023-02-27T05:19:38.922Z,0.01
2023-02-27T05:22:35.994Z,-0.06
2023-02-27T05:25:08.388Z,-0.63
2023-02-27T05:27:47.063Z,-0.41
2023-02-27T05:30:51.022Z,-0.09
2023-02-27T05:33:22.577Z,-0.06
2023-02-27T05:36:15.119Z,-0.78
2023-02-27T05:38:50.576Z,-0.61
2023-02-27T05:41:23.324Z,-0.26
2023-02-27T05:44:18.990Z,-0.05
2023-02-27T05:46:52.867Z,-0.38
2023-02-27T05:49:24.091Z,-0.51
2023-02-27T05:51:52.855Z,-0.28
2023-02-27T05:54:36.124Z,-0.54
2023-02-27T05:57:04.611Z,-0.08
2023-02-27T05:59:35.858Z,-0.10
2023-02-27T06:02:02.311Z,-0.26
2023-02-27T06:04:28.860Z,-0.52
2023-02-27T06:06:55.396Z,-0.89
2023-02-27T06:09:22.101Z,-0.33
2023-02-27T06:11:48.525Z,-0.28
2023-02-27T06:14:14.964Z,-0.85
2023-02-27T06:16:41.466Z,-0.36
2023-02-27T06:19:07.928Z,-0.26
2023-02-27T06:21:34.340Z,-0.36
2023-02-27T06:24:00.724Z,-0.22
2023-02-27T06:26:27.468Z,-0.29
2023-02-27T06:28:54.059Z,-0.38
2023-02-27T06:31:20.548Z,-0.27
2023-02-27T06:33:46.947Z,-0.35
2023-02-27T06:36:13.611Z,-0.25
2023-02-27T06:38:40.679Z,-0.44
2023-02-27T06:41:07.452Z,-0.46
2023-02-27T06:43:34.831Z,-0.52
2023-02-27T06:46:01.297Z,-0.20
2023-02-27T06:48:27.816Z,-0.25
2023-02-27T06:50:56.233Z,-0.30
2023-02-27T06:53:24.023Z,0.04
2023-02-27T06:55:50.551Z,0.07
2023-02-27T06:58:17.260Z,0.09
2023-02-27T07:00:43.862Z,-0.47
2023-02-27T07:03:10.532Z,0.14
2023-02-27T07:05:37.031Z,-0.06
2023-02-27T07:08:03.964Z,0.01
2023-02-27T07:10:30.618Z,-0.08
2023-02-27T07:12:57.070Z,-0.03
2023-02-27T07:15:23.472Z,0.26
2023-02-27T07:17:49.930Z,-0.08
2023-02-27T07:20:16.443Z,-0.04
2023-02-27T07:22:43.153Z,0.60
2023-02-27T07:25:10.112Z,0.52
2023-02-27T07:27:36.549Z,0.17
2023-02-27T07:30:03.456Z,0.24
2023-02-27T07:32:29.894Z,0.30
2023-02-27T07:34:56.279Z,0.59
2023-02-27T07:37:22.736Z,0.69
2023-02-27T07:39:49.122Z,0.45
2023-02-27T07:42:15.525Z,0.87
2023-02-27T07:44:41.995Z,1.39
2023-02-27T07:47:08.504Z,0.87
2023-02-27T07:49:34.996Z,0.98
2023-02-27T07:52:01.566Z,1.50
2023-02-27T07:54:28.075Z,1.37
2023-02-27T07:56:54.509Z,2.14
2023-02-27T07:59:20.912Z,2.19
2023-02-27T08:01:47.426Z,2.22
2023-02-27T08:04:13.883Z,2.07
2023-02-27T08:06:40.466Z,2.48
2023-02-27T08:09:06.899Z,2.32
2023-02-27T08:11:33.400Z,2.78
2023-02-27T08:14:01.565Z,2.79
2023-02-27T08:16:29.105Z,2.93
2023-02-27T08:18:56.123Z,3.08
2023-02-27T08:21:22.666Z,3.28
2023-02-27T08:23:49.127Z,3.63
2023-02-27T08:26:15.683Z,3.88
2023-02-27T08:28:42.089Z,3.87
2023-02-27T08:31:09.022Z,3.67
2023-02-27T08:33:36.094Z,3.66
2023-02-27T08:36:02.666Z,3.56
2023-02-27T08:38:29.091Z,3.72
2023-02-27T08:40:55.526Z,3.71
2023-02-27T08:43:23.131Z,3.97
2023-02-27T08:45:49.971Z,3.89
2023-02-27T08:48:17.661Z,4.16
2023-02-27T08:50:45.229Z,4.09
2023-02-27T08:53:12.286Z,4.43
2023-02-27T08:55:38.679Z,4.58
2023-02-27T08:58:05.113Z,4.59
2023-02-27T09:00:32.488Z,4.79
2023-02-27T09:05:26.865Z,5.70
2023-02-27T09:07:53.246Z,6.09
2023-02-27T09:10:19.672Z,6.62
2023-02-27T09:12:46.296Z,7.27
2023-02-27T09:15:12.834Z,8.42
2023-02-27T09:17:39.274Z,8.82
2023-02-27T09:20:09.132Z,9.33
2023-02-27T09:22:35.448Z,8.86
2023-02-27T09:25:02.218Z,9.99
2023-02-27T09:27:28.710Z,10.18
2023-02-27T09:29:57.994Z,10.65
2023-02-27T09:32:25.365Z,10.69
2023-02-27T09:34:51.948Z,11.26
2023-02-27T09:37:21.313Z,11.36
2023-02-27T09:39:47.834Z,12.18
2023-02-27T09:42:30.905Z,12.56
2023-02-27T09:45:02.929Z,13.27
2023-02-27T09:47:31.057Z,14.10
2023-02-27T09:50:00.876Z,14.50
2023-02-27T09:52:28.950Z,14.82
2023-02-27T09:54:55.788Z,15.01
2023-02-27T09:57:30.765Z,14.67
2023-02-27T10:00:01.585Z,15.13
2023-02-27T10:02:55.484Z,14.09
2023-02-27T10:05:33.720Z,15.24
2023-02-27T10:08:29.019Z,15.08
2023-02-27T10:11:09.967Z,14.64
2023-02-27T10:13:49.857Z,15.64
2023-02-27T10:16:19.445Z,15.62
2023-02-27T10:18:58.188Z,15.73
2023-02-27T10:21:31.615Z,15.64
2023-02-27T10:24:07.748Z,16.38
2023-02-27T10:26:39.349Z,16.37
2023-02-27T10:29:30.601Z,15.97
2023-02-27T10:32:12.408Z,16.88
2023-02-27T10:34:40.712Z,16.47
2023-02-27T10:37:07.810Z,16.43
2023-02-27T10:39:45.265Z,15.17
2023-02-27T10:42:12.739Z,14.83
2023-02-27T10:44:39.147Z,14.43
2023-02-27T10:47:05.677Z,14.40
2023-02-27T10:49:32.901Z,13.62
2023-02-27T10:52:10.815Z,12.70
2023-02-27T10:54:37.413Z,11.84
2023-02-27T10:57:08.059Z,12.23
2023-02-27T10:59:41.517Z,11.30
2023-02-27T11:02:22.368Z,11.27
2023-02-27T11:04:53.861Z,11.42
2023-02-27T11:07:46.806Z,10.94
2023-02-27T11:10:13.110Z,11.98
2023-02-27T11:12:41.129Z,12.03
2023-02-27T11:15:16.521Z,12.00
2023-02-27T11:17:43.415Z,13.06
2023-02-27T11:20:36.263Z,12.75
2023-02-27T11:23:15.325Z,12.17
2023-02-27T11:25:42.201Z,12.60
2023-02-27T11:28:22.821Z,12.99
2023-02-27T11:30:58.206Z,13.53
2023-02-27T11:33:25.660Z,13.61
2023-02-27T11:35:57.856Z,13.85
2023-02-27T11:38:28.086Z,13.40
2023-02-27T11:40:58.319Z,13.22
2023-02-27T11:43:28.250Z,12.63
2023-02-27T11:46:19.012Z,11.46
2023-02-27T11:49:07.568Z,10.94
2023-02-27T11:51:55.522Z,10.62
2023-02-27T11:54:41.152Z,10.37
2023-02-27T11:57:07.520Z,10.86
2023-02-27T11:59:44.896Z,11.28
2023-02-27T12:02:20.808Z,11.10
2023-02-27T12:04:57.202Z,11.25
2023-02-27T12:07:37.012Z,10.60
2023-02-27T12:10:26.737Z,10.76
2023-02-27T12:12:57.597Z,10.49
2023-02-27T12:15:51.147Z,10.04
2023-02-27T12:18:43.577Z,8.64
2023-02-27T12:21:12.186Z,9.33
2023-02-27T12:23:43.766Z,9.27
2023-02-27T12:26:13.190Z,9.52
2023-02-27T12:29:04.890Z,9.20
2023-02-27T12:31:34.457Z,9.29
2023-02-27T12:34:22.686Z,9.01
2023-02-27T12:36:49.242Z,8.89
2023-02-27T12:39:19.472Z,9.53
2023-02-27T12:42:07.831Z,10.06
2023-02-27T12:45:02.925Z,10.36
2023-02-27T12:47:38.505Z,10.80
2023-02-27T12:50:17.968Z,10.90
2023-02-27T12:53:12.190Z,11.18
2023-02-27T12:55:49.007Z,11.06
2023-02-27T12:58:18.335Z,11.94
2023-02-27T13:00:52.594Z,11.57
2023-02-27T13:03:28.462Z,10.79
2023-02-27T13:06:03.051Z,11.00
2023-02-27T13:08:43.117Z,11.08
2023-02-27T13:11:28.536Z,10.48
2023-02-27T13:14:32.794Z,10.18
2023-02-27T13:17:17.062Z,10.01
2023-02-27T13:19:52.826Z,9.88
2023-02-27T13:22:39.309Z,9.71
2023-02-27T13:25:12.109Z,9.64
2023-02-27T13:27:42.679Z,9.32
2023-02-27T13:30:16.262Z,8.96
2023-02-27T13:33:13.111Z,9.07
2023-02-27T13:36:07.426Z,9.27
2023-02-27T13:38:44.641Z,9.29
2023-02-27T13:41:23.031Z,9.14
2023-02-27T13:43:54.072Z,9.12
2023-02-27T13:46:33.548Z,8.76
2023-02-27T13:49:06.024Z,9.08
2023-02-27T13:51:35.591Z,9.08
2023-02-27T13:54:14.241Z,9.20
2023-02-27T13:56:46.508Z,9.15
2023-02-27T13:59:23.793Z,9.26
2023-02-27T14:01:53.809Z,9.27
2023-02-27T14:04:20.217Z,8.69
2023-02-27T14:06:47.494Z,8.02
2023-02-27T14:09:19.239Z,8.34
2023-02-27T14:11:59.025Z,8.12
2023-02-27T14:14:46.625Z,8.17
2023-02-27T14:17:35.047Z,8.12
2023-02-27T14:20:13.148Z,8.48
2023-02-27T14:22:44.856Z,8.33
2023-02-27T14:25:19.433Z,8.51
2023-02-27T14:27:45.867Z,8.85
2023-02-27T14:30:32.519Z,8.63
2023-02-27T14:33:12.526Z,9.59
2023-02-27T14:35:39.163Z,10.63
2023-02-27T14:38:11.354Z,11.75
2023-02-27T14:40:52.225Z,12.02
2023-02-27T14:43:26.215Z,12.00
2023-02-27T14:45:53.787Z,12.22
2023-02-27T14:48:27.290Z,12.92
2023-02-27T14:50:54.543Z,12.52
2023-02-27T14:53:26.961Z,12.11
2023-02-27T14:55:55.693Z,13.20
2023-02-27T14:58:22.494Z,13.38
2023-02-27T15:00:58.391Z,13.50
2023-02-27T15:03:25.412Z,13.86
2023-02-27T15:05:54.047Z,13.17
2023-02-27T15:08:32.019Z,13.14
2023-02-27T15:10:59.072Z,14.22
2023-02-27T15:13:29.092Z,14.58
2023-02-27T15:16:23.544Z,15.16
2023-02-27T15:18:55.044Z,15.61
2023-02-27T15:21:23.544Z,15.41
2023-02-27T15:23:57.928Z,14.58
2023-02-27T15:26:24.657Z,14.33
2023-02-27T15:28:51.379Z,12.66
2023-02-27T15:31:21.430Z,11.71
2023-02-27T15:33:48.301Z,11.88
2023-02-27T15:36:24.390Z,11.62
2023-02-27T15:39:15.364Z,11.95
2023-02-27T15:41:48.595Z,12.81
2023-02-27T15:44:17.675Z,13.15
2023-02-27T15:46:45.459Z,13.63
2023-02-27T15:49:20.944Z,13.33
2023-02-27T15:51:54.662Z,13.33
2023-02-27T15:54:22.333Z,12.82
2023-02-27T15:56:48.970Z,13.17
2023-02-27T15:59:17.231Z,13.56
2023-02-27T16:01:44.831Z,13.55
2023-02-27T16:04:20.883Z,13.56
2023-02-27T16:06:58.770Z,12.15
2023-02-27T16:09:30.137Z,11.75
2023-02-27T16:12:21.684Z,10.81
2023-02-27T16:14:49.282Z,10.31
2023-02-27T16:17:52.097Z,10.01
2023-02-27T16:20:43.092Z,9.28
2023-02-27T16:23:09.457Z,9.18
2023-02-27T16:25:35.924Z,8.80
2023-02-27T16:28:02.470Z,8.56
2023-02-27T16:30:28.917Z,8.31
2023-02-27T16:33:01.263Z,8.04
2023-02-27T16:35:28.433Z,7.99
2023-02-27T16:38:01.335Z,7.06
2023-02-27T16:40:28.492Z,8.13
2023-02-27T16:42:55.003Z,7.85
2023-02-27T16:45:24.117Z,7.94
2023-02-27T16:47:52.729Z,7.03
2023-02-27T16:50:29.228Z,7.67
2023-02-27T16:52:56.132Z,7.46
2023-02-27T16:55:24.494Z,6.68
2023-02-27T16:57:50.892Z,7.05
2023-02-27T17:00:19.719Z,7.31
2023-02-27T17:02:49.005Z,6.84
2023-02-27T17:05:15.689Z,6.70
2023-02-27T17:07:46.520Z,6.91
2023-02-27T17:10:16.289Z,6.87
2023-02-27T17:12:44.011Z,6.86
2023-02-27T17:15:10.803Z,6.67
2023-02-27T17:17:37.214Z,6.80
2023-02-27T17:20:07.133Z,6.52
2023-02-27T17:22:41.611Z,6.48
2023-02-27T17:25:09.917Z,6.46
2023-02-27T17:27:36.553Z,6.52
2023-02-27T17:30:03.639Z,5.96
2023-02-27T17:32:30.062Z,6.23
2023-02-27T17:34:57.046Z,6.24
2023-02-27T17:37:23.520Z,6.03
2023-02-27T17:39:54.804Z,6.27
2023-02-27T17:42:22.801Z,6.09
2023-02-27T17:44:49.271Z,5.85
2023-02-27T17:47:15.765Z,5.70
2023-02-27T17:49:42.483Z,5.96
2023-02-27T17:52:09.251Z,5.39
2023-02-27T17:54:36.239Z,6.00
2023-02-27T17:57:04.917Z,5.88
2023-02-27T17:59:31.622Z,5.81
2023-02-27T18:01:59.371Z,5.54
2023-02-27T18:04:26.077Z,5.56
2023-02-27T18:06:52.940Z,5.84
2023-02-27T18:09:19.417Z,5.77
2023-02-27T18:11:45.909Z,5.55
2023-02-27T18:14:12.538Z,5.18
2023-02-27T18:16:39.018Z,5.43
2023-02-27T18:19:06.410Z,5.65
2023-02-27T18:21:33.392Z,5.23
2023-02-27T18:24:00.127Z,5.41
2023-02-27T18:26:32.928Z,5.53
2023-02-27T18:29:02.430Z,5.51
2023-02-27T18:31:44.293Z,5.02
2023-02-27T18:34:11.896Z,5.39
2023-02-27T18:36:39.245Z,4.56
2023-02-27T18:39:06.573Z,4.32
2023-02-27T18:41:33.554Z,4.16
2023-02-27T18:44:01.140Z,5.10
2023-02-27T18:46:28.225Z,5.05
2023-02-27T18:48:55.250Z,4.97
2023-02-27T18:51:22.114Z,4.72
2023-02-27T18:53:49.999Z,5.04
2023-02-27T18:56:18.868Z,4.86
2023-02-27T18:58:47.418Z,4.33
2023-02-27T19:01:29.135Z,4.85
2023-02-27T19:04:03.226Z,4.61
2023-02-27T19:06:31.317Z,4.75
2023-02-27T19:08:57.822Z,4.69
2023-02-27T19:11:28.498Z,4.76
2023-02-27T19:13:56.744Z,4.76
2023-02-27T19:16:23.309Z,4.69
2023-02-27T19:18:49.723Z,4.30
2023-02-27T19:21:16.329Z,4.63
2023-02-27T19:23:43.286Z,4.55
2023-02-27T19:26:09.733Z,4.33
2023-02-27T19:28:36.444Z,4.19
2023-02-27T19:31:10.480Z,4.40
2023-02-27T19:33:37.183Z,4.31
2023-02-27T19:36:09.083Z,4.24
2023-02-27T19:38:36.391Z,4.18
2023-02-27T19:41:04.892Z,4.28
2023-02-27T19:43:31.490Z,4.08
2023-02-27T19:45:58.116Z,3.60
2023-02-27T19:48:24.667Z,4.08
2023-02-27T19:50:51.142Z,4.11
2023-02-27T19:53:17.757Z,3.81
2023-02-27T19:55:44.158Z,4.09
2023-02-27T19:58:10.606Z,3.92
2023-02-27T20:00:37.049Z,3.53
2023-02-27T20:03:03.507Z,3.33
2023-02-27T20:05:30.035Z,3.84
2023-02-27T20:07:57.621Z,3.92
2023-02-27T20:10:24.053Z,3.48
2023-02-27T20:12:50.460Z,3.80
2023-02-27T20:15:16.996Z,4.02
2023-02-27T20:17:43.838Z,4.07
2023-02-27T20:20:10.779Z,3.95
2023-02-27T20:22:38.191Z,3.47
2023-02-27T20:25:04.749Z,4.01
2023-02-27T20:27:31.159Z,3.91
2023-02-27T20:29:57.695Z,3.87
2023-02-27T20:32:24.801Z,4.01
2023-02-27T20:34:52.318Z,3.79
2023-02-27T20:37:19.700Z,3.95
2023-02-27T20:39:46.511Z,3.91
2023-02-27T20:42:14.038Z,3.75
2023-02-27T20:44:41.864Z,3.50
2023-02-27T20:50:00.406Z,3.22
2023-02-27T20:52:27.325Z,3.70
2023-02-27T20:54:55.272Z,3.81
2023-02-27T20:57:21.687Z,3.28
2023-02-27T20:59:50.252Z,3.63
2023-02-27T21:02:17.179Z,3.18
2023-02-27T21:04:44.059Z,3.51
2023-02-27T21:07:16.186Z,3.60
2023-02-27T21:09:42.792Z,3.30
2023-02-27T21:12:10.096Z,3.35
2023-02-27T21:14:36.916Z,3.50
2023-02-27T21:17:04.290Z,3.17
2023-02-27T21:19:30.945Z,2.76
2023-02-27T21:21:57.416Z,2.61
2023-02-27T21:24:23.847Z,3.13
2023-02-27T21:26:50.394Z,3.14
2023-02-27T21:29:19.140Z,3.15
2023-02-27T21:31:48.779Z,3.12
2023-02-27T21:34:26.485Z,3.10
2023-02-27T21:36:53.338Z,3.07
2023-02-27T21:39:25.774Z,3.03
2023-02-27T21:41:52.864Z,3.01
2023-02-27T21:44:21.127Z,2.97
2023-02-27T21:46:47.685Z,2.78
2023-02-27T21:49:19.055Z,2.49
2023-02-27T21:51:46.715Z,2.84
2023-02-27T21:54:14.303Z,2.82
2023-02-27T21:56:41.462Z,2.82
2023-02-27T21:59:08.496Z,2.57
2023-02-27T22:01:35.117Z,2.17
2023-02-27T22:04:01.906Z,2.30
2023-02-27T22:06:32.115Z,2.62
2023-02-27T22:08:59.246Z,2.37
2023-02-27T22:11:27.380Z,2.43
2023-02-27T22:13:54.324Z,2.38
2023-02-27T22:16:21.450Z,2.32
2023-02-27T22:18:48.203Z,1.94
2023-02-27T22:21:17.358Z,1.92
2023-02-27T22:23:47.221Z,2.32
2023-02-27T22:26:16.347Z,2.28
2023-02-27T22:28:42.835Z,2.27
2023-02-27T22:31:14.636Z,2.13
2023-02-27T22:33:42.998Z,2.14
2023-02-27T22:36:14.982Z,2.26
2023-02-27T22:38:42.683Z,2.21
2023-02-27T22:41:14.564Z,2.04
2023-02-27T22:43:41.329Z,2.08
2023-02-27T22:46:08.731Z,2.11
2023-02-27T22:48:35.626Z,1.87
2023-02-27T22:51:07.775Z,2.15
2023-02-27T22:53:38.411Z,2.24
2023-02-27T22:56:06.964Z,2.18
2023-02-27T22:58:37.056Z,2.03
2023-02-27T23:01:12.393Z,2.25
2023-02-27T23:03:39.821Z,2.13
2023-02-27T23:06:07.878Z,2.29
2023-02-27T23:08:34.715Z,2.39
2023-02-27T23:11:01.361Z,1.66
2023-02-27T23:13:27.929Z,2.37
2023-02-27T23:15:54.795Z,2.44
2023-02-27T23:18:21.238Z,2.41
2023-02-27T23:20:47.694Z,2.04
2023-02-27T23:23:14.087Z,2.48
2023-02-27T23:25:40.519Z,2.67
2023-02-27T23:28:06.999Z,2.52
2023-02-27T23:30:33.884Z,2.83
2023-02-27T23:33:00.637Z,2.78
2023-02-27T23:35:27.770Z,2.94
2023-02-27T23:37:58.969Z,2.99
2023-02-27T23:40:27.028Z,3.07
2023-02-27T23:43:12.657Z,2.83
2023-02-27T23:45:39.518Z,2.77
2023-02-27T23:48:06.232Z,2.98
2023-02-27T23:50:35.831Z,3.15
2023-02-27T23:53:02.319Z,2.86
2023-02-27T23:55:29.982Z,3.06
2023-02-27T23:57:58.302Z,3.29
